createdAt,value
2018-07-22T00:01:17.380Z,2.30
2018-07-22T00:03:49.439Z,4.83
2018-07-22T00:06:22.113Z,2.40
2018-07-22T00:08:53.918Z,3.37
2018-07-22T00:11:25.730Z,3.73
2018-07-22T00:13:57.569Z,3.07
2018-07-22T00:16:29.559Z,2.33
2018-07-22T00:19:01.295Z,2.30
2018-07-22T00:21:47.295Z,2.47
2018-07-22T00:24:18.965Z,2.73
2018-07-22T00:26:50.659Z,3.73
2018-07-22T00:29:22.319Z,2.33
2018-07-22T00:31:53.974Z,2.17
2018-07-22T00:34:25.566Z,2.97
2018-07-22T00:36:57.533Z,2.50
2018-07-22T00:39:29.423Z,3.13
2018-07-22T00:42:01.333Z,2.13
2018-07-22T00:44:33.127Z,2.00
2018-07-22T00:47:05.062Z,3.90
2018-07-22T00:49:36.967Z,2.10
2018-07-22T00:52:08.681Z,2.20
2018-07-22T00:54:40.404Z,2.30
2018-07-22T00:57:12.394Z,2.73
2018-07-22T00:59:44.444Z,2.80
2018-07-22T01:02:16.545Z,2.33
2018-07-22T01:04:48.186Z,2.50
2018-07-22T01:07:19.842Z,4.77
2018-07-22T01:09:51.435Z,2.17
2018-07-22T01:12:23.171Z,3.00
2018-07-22T01:14:54.779Z,2.60
2018-07-22T01:17:26.444Z,2.10
2018-07-22T01:20:01.161Z,2.40
2018-07-22T01:22:32.790Z,2.40
2018-07-22T01:25:04.421Z,2.20
2018-07-22T01:27:36.026Z,2.80
2018-07-22T01:30:10.060Z,2.20
2018-07-22T01:32:41.619Z,2.30
2018-07-22T01:35:13.108Z,1.90
2018-07-22T01:37:44.658Z,1.97
2018-07-22T01:40:16.202Z,2.03
2018-07-22T01:42:47.810Z,2.20
2018-07-22T01:45:19.324Z,2.20
2018-07-22T01:47:50.899Z,2.10
2018-07-22T01:50:22.474Z,1.90
2018-07-22T01:52:54.037Z,2.30
2018-07-22T01:55:25.198Z,2.37
2018-07-22T01:57:56.531Z,2.27
2018-07-22T02:00:28.102Z,2.77
2018-07-22T02:03:00.293Z,2.10
2018-07-22T02:05:32.667Z,2.57
2018-07-22T02:08:04.255Z,2.23
2018-07-22T02:10:35.798Z,2.10
2018-07-22T02:13:07.554Z,1.90
2018-07-22T02:15:39.097Z,2.83
2018-07-22T02:18:10.626Z,2.17
2018-07-22T02:20:41.980Z,2.87
2018-07-22T02:23:13.392Z,3.07
2018-07-22T02:25:44.913Z,1.87
2018-07-22T02:28:16.419Z,2.30
2018-07-22T02:30:48.047Z,2.63
2018-07-22T02:33:19.594Z,3.90
2018-07-22T02:35:51.129Z,2.63
2018-07-22T02:38:23.038Z,2.63
2018-07-22T02:40:54.203Z,4.80
2018-07-22T02:43:25.148Z,2.57
2018-07-22T02:45:56.164Z,2.43
2018-07-22T02:48:27.515Z,3.27
2018-07-22T02:50:59.058Z,3.00
2018-07-22T02:53:30.660Z,3.73
2018-07-22T02:56:02.180Z,2.50
2018-07-22T02:58:33.830Z,3.07
2018-07-22T03:01:04.970Z,2.83
2018-07-22T03:03:36.006Z,2.33
2018-07-22T03:06:07.326Z,3.43
2018-07-22T03:08:38.891Z,2.20
2018-07-22T03:11:10.410Z,2.73
2018-07-22T03:13:41.738Z,2.73
2018-07-22T03:16:13.093Z,2.10
2018-07-22T03:18:44.667Z,2.80
2018-07-22T03:21:16.175Z,4.13
2018-07-22T03:23:47.862Z,2.90
2018-07-22T03:26:19.202Z,3.57
2018-07-22T03:28:50.612Z,4.20
2018-07-22T03:31:22.309Z,4.03
2018-07-22T03:33:54.446Z,3.27
2018-07-22T03:36:25.608Z,3.00
2018-07-22T03:38:57.088Z,2.90
2018-07-22T03:41:28.723Z,2.80
2018-07-22T03:44:00.394Z,4.70
2018-07-22T03:46:32.025Z,5.00
2018-07-22T03:49:03.651Z,2.60
2018-07-22T03:51:34.834Z,2.40
2018-07-22T03:54:06.231Z,3.07
2018-07-22T03:56:40.784Z,3.50
2018-07-22T03:59:11.942Z,2.47
2018-07-22T04:01:43.374Z,2.40
2018-07-22T04:04:15.060Z,2.87
2018-07-22T04:06:46.704Z,2.57
2018-07-22T04:09:18.294Z,2.63
2018-07-22T04:11:49.905Z,2.23
2018-07-22T04:14:21.614Z,2.50
2018-07-22T04:16:53.242Z,2.47
2018-07-22T04:19:24.886Z,2.30
2018-07-22T04:21:56.474Z,3.03
2018-07-22T04:24:28.292Z,3.20
2018-07-22T04:27:00.063Z,1.97
2018-07-22T04:29:31.764Z,2.20
2018-07-22T04:32:03.465Z,2.20
2018-07-22T04:34:35.212Z,2.63
2018-07-22T04:37:06.724Z,2.23
2018-07-22T04:39:38.324Z,3.27
2018-07-22T04:42:09.495Z,2.20
2018-07-22T04:44:40.995Z,2.50
2018-07-22T04:47:12.742Z,2.87
2018-07-22T04:49:44.563Z,2.97
2018-07-22T04:52:16.214Z,2.10
2018-07-22T04:54:47.943Z,3.07
2018-07-22T04:57:19.671Z,3.90
2018-07-22T04:59:51.367Z,2.30
2018-07-22T05:02:23.065Z,2.60
2018-07-22T05:04:54.802Z,2.53
2018-07-22T05:07:26.424Z,4.37
2018-07-22T05:09:58.203Z,3.00
2018-07-22T05:12:29.827Z,2.93
2018-07-22T05:15:01.543Z,2.30
2018-07-22T05:17:33.225Z,3.27
2018-07-22T05:20:04.544Z,3.67
2018-07-22T05:22:35.983Z,2.43
2018-07-22T05:25:07.671Z,2.50
2018-07-22T05:27:39.305Z,2.30
2018-07-22T05:30:10.645Z,3.33
2018-07-22T05:32:42.051Z,4.93
2018-07-22T05:35:13.670Z,2.40
2018-07-22T05:37:45.309Z,3.13
2018-07-22T05:40:17.127Z,2.80
2018-07-22T05:42:48.758Z,2.43
2018-07-22T05:45:20.458Z,2.57
2018-07-22T05:47:52.097Z,2.47
2018-07-22T05:50:23.855Z,2.50
2018-07-22T05:52:55.814Z,2.60
2018-07-22T05:55:27.614Z,3.27
2018-07-22T05:57:59.274Z,4.03
2018-07-22T06:00:30.614Z,2.83
2018-07-22T06:03:02.923Z,8.30
2018-07-22T06:05:34.675Z,4.50
2018-07-22T06:08:06.573Z,3.80
2018-07-22T06:10:38.229Z,3.97
2018-07-22T06:13:10.086Z,6.50
2018-07-22T06:15:41.802Z,4.20
2018-07-22T06:18:14.714Z,4.97
2018-07-22T06:20:46.674Z,4.27
2018-07-22T06:23:19.522Z,3.40
2018-07-22T06:25:51.279Z,3.33
2018-07-22T06:28:22.951Z,2.77
2018-07-22T06:30:54.733Z,3.60
2018-07-22T06:33:26.418Z,3.50
2018-07-22T06:35:58.178Z,5.97
2018-07-22T06:38:29.892Z,3.43
2018-07-22T06:41:01.663Z,3.43
2018-07-22T06:43:33.417Z,4.00
2018-07-22T06:46:05.208Z,3.90
2018-07-22T06:48:36.873Z,3.23
2018-07-22T06:51:08.363Z,4.93
2018-07-22T06:53:39.906Z,3.47
2018-07-22T06:56:11.727Z,3.37
2018-07-22T06:58:43.415Z,2.90
2018-07-22T07:01:14.739Z,3.50
2018-07-22T07:03:46.154Z,4.20
2018-07-22T07:06:17.948Z,2.80
2018-07-22T07:08:49.663Z,3.13
2018-07-22T07:11:21.650Z,2.77
2018-07-22T07:13:53.173Z,3.00
2018-07-22T07:16:27.033Z,2.77
2018-07-22T07:18:59.938Z,2.50
2018-07-22T07:21:31.254Z,3.63
2018-07-22T07:24:02.727Z,2.63
2018-07-22T07:26:34.642Z,3.53
2018-07-22T07:29:06.469Z,3.27
2018-07-22T07:31:37.821Z,3.70
2018-07-22T07:34:09.658Z,4.23
2018-07-22T07:36:41.439Z,8.47
2018-07-22T07:39:13.882Z,3.50
2018-07-22T07:41:45.616Z,4.90
2018-07-22T07:44:17.454Z,3.03
2018-07-22T07:46:48.653Z,3.23
2018-07-22T07:49:20.138Z,2.97
2018-07-22T07:51:51.826Z,3.50
2018-07-22T07:54:23.549Z,3.40
2018-07-22T07:56:55.246Z,3.50
2018-07-22T07:59:26.940Z,3.53
2018-07-22T08:01:58.694Z,5.90
2018-07-22T08:04:29.933Z,3.90
2018-07-22T08:07:01.735Z,3.63
2018-07-22T08:09:33.370Z,3.47
2018-07-22T08:12:05.715Z,4.03
2018-07-22T08:14:37.427Z,4.23
2018-07-22T08:17:09.261Z,3.73
2018-07-22T08:19:41.943Z,5.90
2018-07-22T08:22:13.719Z,6.40
2018-07-22T08:24:45.333Z,8.17
2018-07-22T08:27:17.059Z,6.53
2018-07-22T08:29:48.826Z,6.00
2018-07-22T08:32:20.663Z,5.13
2018-07-22T08:34:52.475Z,5.33
2018-07-22T08:37:23.710Z,5.10
2018-07-22T08:39:55.190Z,5.60
2018-07-22T08:42:26.967Z,18.83
2018-07-22T08:44:58.690Z,5.83
2018-07-22T08:47:30.480Z,6.23
2018-07-22T08:50:02.190Z,5.53
2018-07-22T08:52:33.830Z,5.33
2018-07-22T08:55:05.464Z,4.50
2018-07-22T08:57:36.910Z,5.13
2018-07-22T09:00:08.724Z,4.40
2018-07-22T09:02:40.006Z,6.40
2018-07-22T09:05:11.706Z,5.17
2018-07-22T09:07:43.589Z,4.40
2018-07-22T09:10:15.286Z,4.17
2018-07-22T09:12:47.747Z,4.73
2018-07-22T09:15:19.586Z,3.57
2018-07-22T09:17:52.089Z,4.20
2018-07-22T09:20:23.838Z,4.17
2018-07-22T09:22:55.599Z,3.87
2018-07-22T09:25:27.824Z,3.37
2018-07-22T09:27:59.541Z,5.57
2018-07-22T09:30:31.125Z,4.90
2018-07-22T09:33:02.958Z,2.80
2018-07-22T09:35:34.599Z,3.17
2018-07-22T09:38:06.974Z,2.97
2018-07-22T09:40:38.627Z,3.57
2018-07-22T09:43:10.386Z,6.80
2018-07-22T09:45:42.843Z,4.63
2018-07-22T09:48:14.664Z,4.40
2018-07-22T09:50:46.294Z,4.53
2018-07-22T09:53:18.418Z,3.97
2018-07-22T09:55:50.799Z,3.70
2018-07-22T09:58:22.520Z,3.50
2018-07-22T10:00:57.671Z,2.77
2018-07-22T10:03:31.036Z,3.07
2018-07-22T10:06:02.261Z,2.60
2018-07-22T10:08:33.798Z,3.07
2018-07-22T10:11:05.533Z,4.90
2018-07-22T10:13:37.165Z,4.90
2018-07-22T10:16:08.365Z,3.70
2018-07-22T10:18:39.805Z,3.93
2018-07-22T10:21:11.508Z,4.97
2018-07-22T10:23:43.223Z,3.17
2018-07-22T10:26:14.936Z,3.60
2018-07-22T10:28:46.985Z,3.80
2018-07-22T10:31:19.941Z,3.90
2018-07-22T10:33:51.162Z,3.47
2018-07-22T10:36:22.927Z,2.77
2018-07-22T10:38:55.233Z,5.30
2018-07-22T10:41:26.868Z,6.07
2018-07-22T10:43:58.511Z,4.13
2018-07-22T10:46:30.666Z,4.73
2018-07-22T10:49:02.355Z,3.43
2018-07-22T10:51:34.996Z,3.60
2018-07-22T10:54:07.207Z,3.50
2018-07-22T10:56:38.954Z,3.73
2018-07-22T10:59:11.865Z,3.57
2018-07-22T11:01:44.060Z,3.50
2018-07-22T11:04:15.887Z,4.63
2018-07-22T11:06:47.610Z,4.77
2018-07-22T11:09:19.826Z,2.70
2018-07-22T11:11:51.285Z,3.50
2018-07-22T11:14:22.426Z,5.10
2018-07-22T11:16:54.003Z,3.20
2018-07-22T11:19:26.780Z,2.93
2018-07-22T11:21:58.560Z,2.90
2018-07-22T11:24:30.331Z,3.20
2018-07-22T11:27:02.166Z,4.40
2018-07-22T11:29:33.940Z,3.20
2018-07-22T11:32:06.160Z,4.70
2018-07-22T11:34:37.979Z,6.80
2018-07-22T11:37:10.812Z,6.50
2018-07-22T11:39:42.582Z,4.73
2018-07-22T11:42:14.421Z,4.10
2018-07-22T11:44:46.173Z,3.80
2018-07-22T11:47:17.872Z,4.37
2018-07-22T11:49:49.671Z,4.37
2018-07-22T11:52:21.410Z,4.33
2018-07-22T11:54:53.206Z,4.10
2018-07-22T11:57:25.368Z,5.10
2018-07-22T11:59:57.194Z,4.60
2018-07-22T12:02:28.833Z,4.33
2018-07-22T12:05:00.686Z,6.60
2018-07-22T12:07:32.500Z,4.50
2018-07-22T12:10:04.858Z,6.07
2018-07-22T12:12:36.659Z,6.37
2018-07-22T12:15:08.446Z,4.87
2018-07-22T12:17:40.191Z,4.40
2018-07-22T12:20:12.283Z,4.00
2018-07-22T12:22:44.957Z,4.43
2018-07-22T12:25:16.814Z,4.77
2018-07-22T12:27:48.659Z,4.53
2018-07-22T12:30:20.375Z,8.20
2018-07-22T12:32:51.620Z,5.17
2018-07-22T12:35:23.222Z,5.13
2018-07-22T12:37:55.220Z,6.93
2018-07-22T12:40:27.244Z,4.00
2018-07-22T12:42:59.299Z,4.53
2018-07-22T12:45:32.018Z,4.97
2018-07-22T12:48:06.681Z,5.03
2018-07-22T12:50:38.539Z,7.70
2018-07-22T12:53:10.481Z,7.00
2018-07-22T12:55:42.019Z,3.50
2018-07-22T12:58:13.880Z,3.87
2018-07-22T13:00:45.668Z,4.00
2018-07-22T13:03:18.413Z,3.00
2018-07-22T13:05:50.215Z,3.70
2018-07-22T13:08:22.058Z,4.17
2018-07-22T13:10:53.331Z,6.30
2018-07-22T13:13:24.903Z,4.07
2018-07-22T13:15:56.720Z,4.23
2018-07-22T13:18:28.446Z,3.93
2018-07-22T13:21:00.232Z,3.80
2018-07-22T13:23:31.884Z,4.20
2018-07-22T13:26:03.615Z,4.47
2018-07-22T13:28:34.922Z,4.90
2018-07-22T13:31:07.203Z,5.80
2018-07-22T13:33:39.025Z,5.03
2018-07-22T13:36:10.825Z,5.63
2018-07-22T13:38:42.261Z,5.47
2018-07-22T13:41:13.744Z,6.83
2018-07-22T13:43:45.651Z,6.13
2018-07-22T13:46:18.067Z,8.10
2018-07-22T13:48:49.851Z,6.20
2018-07-22T13:51:22.284Z,5.43
2018-07-22T13:53:54.169Z,5.20
2018-07-22T13:56:25.991Z,5.90
2018-07-22T13:58:57.776Z,6.10
2018-07-22T14:01:29.787Z,5.70
2018-07-22T14:04:01.107Z,5.53
2018-07-22T14:06:32.726Z,4.80
2018-07-22T14:09:06.154Z,5.13
2018-07-22T14:11:38.235Z,4.80
2018-07-22T14:14:10.708Z,4.80
2018-07-22T14:16:42.110Z,4.50
2018-07-22T14:19:13.791Z,7.57
2018-07-22T14:21:47.183Z,8.10
2018-07-22T14:24:19.046Z,6.83
2018-07-22T14:26:51.499Z,8.20
2018-07-22T14:29:23.598Z,4.80
2018-07-22T14:31:55.340Z,5.17
2018-07-22T14:34:27.006Z,7.60
2018-07-22T14:36:58.658Z,5.83
2018-07-22T14:39:30.685Z,14.30
2018-07-22T14:42:02.512Z,4.47
2018-07-22T14:44:34.202Z,6.23
2018-07-22T14:47:06.197Z,5.77
2018-07-22T14:49:39.898Z,5.70
2018-07-22T14:52:11.588Z,6.63
2018-07-22T14:54:43.826Z,5.03
2018-07-22T14:57:15.876Z,5.47
2018-07-22T14:59:47.585Z,9.03
2018-07-22T15:02:19.278Z,6.37
2018-07-22T15:04:51.413Z,5.43
2018-07-22T15:07:23.120Z,6.97
2018-07-22T15:09:55.502Z,6.43
2018-07-22T15:12:27.661Z,5.40
2018-07-22T15:14:59.432Z,6.20
2018-07-22T15:17:31.744Z,6.43
2018-07-22T15:20:03.401Z,6.17
2018-07-22T15:22:35.127Z,5.57
2018-07-22T15:25:07.020Z,4.90
2018-07-22T15:27:38.670Z,5.50
2018-07-22T15:30:10.270Z,5.93
2018-07-22T15:32:42.166Z,7.50
2018-07-22T15:35:13.892Z,7.43
2018-07-22T15:37:47.865Z,7.73
2018-07-22T15:40:20.050Z,7.00
2018-07-22T15:42:52.000Z,7.30
2018-07-22T15:45:25.325Z,8.73
2018-07-22T15:47:57.051Z,8.13
2018-07-22T15:50:28.915Z,7.77
2018-07-22T15:53:01.265Z,7.83
2018-07-22T15:55:33.354Z,7.60
2018-07-22T15:58:04.983Z,7.20
2018-07-22T16:00:36.574Z,8.03
2018-07-22T16:03:08.481Z,7.20
2018-07-22T16:05:39.866Z,6.83
2018-07-22T16:08:12.259Z,6.53
2018-07-22T16:10:43.954Z,6.50
2018-07-22T16:13:15.728Z,7.07
2018-07-22T16:15:47.431Z,6.20
2018-07-22T16:18:19.646Z,5.43
2018-07-22T16:20:51.319Z,5.70
2018-07-22T16:23:23.134Z,5.30
2018-07-22T16:25:55.150Z,5.77
2018-07-22T16:28:26.942Z,5.00
2018-07-22T16:30:58.640Z,5.87
2018-07-22T16:33:30.362Z,5.33
2018-07-22T16:36:01.839Z,5.70
2018-07-22T16:38:33.347Z,5.60
2018-07-22T16:41:05.451Z,5.47
2018-07-22T16:43:37.696Z,5.60
2018-07-22T16:46:09.393Z,5.60
2018-07-22T16:48:41.152Z,5.37
2018-07-22T16:51:12.742Z,6.00
2018-07-22T16:53:44.484Z,5.53
2018-07-22T16:56:16.179Z,6.37
2018-07-22T16:58:47.460Z,5.57
2018-07-22T17:01:19.187Z,5.30
2018-07-22T17:03:51.185Z,5.40
2018-07-22T17:06:22.406Z,5.07
2018-07-22T17:08:54.036Z,5.60
2018-07-22T17:11:25.731Z,6.40
2018-07-22T17:13:57.439Z,5.63
2018-07-22T17:16:29.859Z,5.20
2018-07-22T17:19:01.121Z,5.40
2018-07-22T17:21:33.172Z,6.33
2018-07-22T17:24:04.879Z,4.90
2018-07-22T17:26:36.618Z,5.67
2018-07-22T17:29:09.001Z,5.47
2018-07-22T17:31:41.013Z,6.00
2018-07-22T17:34:14.522Z,5.23
2018-07-22T17:36:47.504Z,6.40
2018-07-22T17:39:19.159Z,5.07
2018-07-22T17:41:50.726Z,5.50
2018-07-22T17:44:23.639Z,5.53
2018-07-22T17:46:55.392Z,5.30
2018-07-22T17:49:27.003Z,4.83
2018-07-22T17:51:58.738Z,5.00
2018-07-22T17:54:30.458Z,6.17
2018-07-22T17:57:03.129Z,5.10
2018-07-22T17:59:34.820Z,4.50
2018-07-22T18:02:06.519Z,5.60
2018-07-22T18:04:38.213Z,6.07
2018-07-22T18:07:09.892Z,5.73
2018-07-22T18:09:42.655Z,6.50
2018-07-22T18:12:14.879Z,6.83
2018-07-22T18:14:46.162Z,5.63
2018-07-22T18:17:17.643Z,6.63
2018-07-22T18:19:49.389Z,5.30
2018-07-22T18:22:20.999Z,7.30
2018-07-22T18:24:52.760Z,8.67
2018-07-22T18:27:25.045Z,7.07
2018-07-22T18:29:56.735Z,6.40
2018-07-22T18:32:28.555Z,8.43
2018-07-22T18:35:00.759Z,7.70
2018-07-22T18:37:32.446Z,7.30
2018-07-22T18:40:03.708Z,6.73
2018-07-22T18:42:35.230Z,6.43
2018-07-22T18:45:07.158Z,5.77
2018-07-22T18:47:38.931Z,6.20
2018-07-22T18:50:10.844Z,8.63
2018-07-22T18:52:42.462Z,7.13
2018-07-22T18:55:13.982Z,8.03
2018-07-22T18:57:45.421Z,8.33
2018-07-22T19:00:17.239Z,7.63
2018-07-22T19:02:48.854Z,6.57
2018-07-22T19:05:21.936Z,6.83
2018-07-22T19:07:53.521Z,6.17
2018-07-22T19:10:26.179Z,6.63
2018-07-22T19:12:58.073Z,6.63
2018-07-22T19:15:30.090Z,5.80
2018-07-22T19:18:01.794Z,8.67
2018-07-22T19:20:34.531Z,8.87
2018-07-22T19:23:06.251Z,8.73
2018-07-22T19:25:39.066Z,7.90
2018-07-22T19:28:13.703Z,7.43
2018-07-22T19:30:46.396Z,9.27
2018-07-22T19:33:19.219Z,11.87
2018-07-22T19:35:51.005Z,10.10
2018-07-22T19:38:23.546Z,8.73
2018-07-22T19:40:55.994Z,9.77
2018-07-22T19:43:27.872Z,9.47
2018-07-22T19:45:59.995Z,7.23
2018-07-22T19:48:34.837Z,7.57
2018-07-22T19:51:06.537Z,6.00
2018-07-22T19:53:38.717Z,7.53
2018-07-22T19:56:11.189Z,7.30
2018-07-22T19:58:43.298Z,9.37
2018-07-22T20:01:15.058Z,8.73
2018-07-22T20:03:46.495Z,7.47
2018-07-22T20:06:18.059Z,6.70
2018-07-22T20:08:50.872Z,7.83
2018-07-22T20:11:24.078Z,6.60
2018-07-22T20:13:55.798Z,6.40
2018-07-22T20:16:27.863Z,6.73
2018-07-22T20:18:59.656Z,7.20
2018-07-22T20:21:32.423Z,6.50
2018-07-22T20:24:04.497Z,7.30
2018-07-22T20:26:36.005Z,8.63
2018-07-22T20:29:07.595Z,8.07
2018-07-22T20:31:39.853Z,7.80
2018-07-22T20:34:11.051Z,9.07
2018-07-22T20:36:42.776Z,9.33
2018-07-22T20:39:14.525Z,7.93
2018-07-22T20:41:46.313Z,7.90
2018-07-22T20:44:19.188Z,7.50
2018-07-22T20:46:51.501Z,7.53
2018-07-22T20:49:24.041Z,9.43
2018-07-22T20:51:55.905Z,9.03
2018-07-22T20:54:27.627Z,9.33
2018-07-22T20:56:59.442Z,8.87
2018-07-22T20:59:31.211Z,6.80
2018-07-22T21:02:02.963Z,6.83
2018-07-22T21:04:34.300Z,7.17
2018-07-22T21:07:06.247Z,6.80
2018-07-22T21:09:38.005Z,8.23
2018-07-22T21:12:54.344Z,8.50
2018-07-22T21:15:26.233Z,9.47
2018-07-22T21:17:58.198Z,10.00
2018-07-22T21:20:29.916Z,10.00
2018-07-22T21:23:01.619Z,9.47
2018-07-22T21:25:33.551Z,8.83
2018-07-22T21:28:05.269Z,8.80
2018-07-22T21:30:37.220Z,8.83
2018-07-22T21:33:09.424Z,8.03
2018-07-22T21:35:41.589Z,9.90
2018-07-22T21:38:13.799Z,7.30
2018-07-22T21:40:45.823Z,7.47
2018-07-22T21:43:17.907Z,8.33
2018-07-22T21:45:50.036Z,9.20
2018-07-22T21:48:21.667Z,9.23
2018-07-22T21:50:53.460Z,8.37
2018-07-22T21:53:25.260Z,7.97
2018-07-22T21:55:57.763Z,7.70
2018-07-22T21:58:29.548Z,8.67
2018-07-22T22:01:02.046Z,8.00
2018-07-22T22:03:33.863Z,8.90
2018-07-22T22:06:05.731Z,7.53
2018-07-22T22:08:37.422Z,8.43
2018-07-22T22:11:08.665Z,8.90
2018-07-22T22:13:40.171Z,8.70
2018-07-22T22:16:11.843Z,9.00
2018-07-22T22:18:43.545Z,8.57
2018-07-22T22:21:15.017Z,10.70
2018-07-22T22:23:46.580Z,7.73
2018-07-22T22:26:18.263Z,7.50
2018-07-22T22:28:49.607Z,8.93
2018-07-22T22:31:21.035Z,7.33
2018-07-22T22:33:52.762Z,7.00
2018-07-22T22:36:24.498Z,6.80
2018-07-22T22:38:56.185Z,6.90
2018-07-22T22:41:27.877Z,6.97
2018-07-22T22:43:59.186Z,7.93
2018-07-22T22:46:30.262Z,8.53
2018-07-22T22:49:01.728Z,9.03
2018-07-22T22:51:33.487Z,8.70
2018-07-22T22:54:05.243Z,8.87
2018-07-22T22:56:36.854Z,8.87
2018-07-22T22:59:23.677Z,9.23
2018-07-22T23:01:55.325Z,12.43
2018-07-22T23:04:27.030Z,10.87
2018-07-22T23:06:58.263Z,11.87
2018-07-22T23:09:29.706Z,13.40
2018-07-22T23:12:01.363Z,10.33
2018-07-22T23:14:32.922Z,10.90
2018-07-22T23:17:04.698Z,10.07
2018-07-22T23:19:36.450Z,9.97
2018-07-22T23:22:08.163Z,10.20
2018-07-22T23:24:39.879Z,9.73
2018-07-22T23:27:11.244Z,10.93
2018-07-22T23:29:42.722Z,9.33
2018-07-22T23:32:14.414Z,9.23
2018-07-22T23:34:45.865Z,10.13
2018-07-22T23:37:18.442Z,9.97
2018-07-22T23:39:49.704Z,9.50
2018-07-22T23:42:21.169Z,8.70
2018-07-22T23:44:52.852Z,8.70
2018-07-22T23:47:24.444Z,12.37
2018-07-22T23:49:56.142Z,11.00
2018-07-22T23:52:27.598Z,13.57
2018-07-22T23:54:59.102Z,10.20
2018-07-22T23:57:30.290Z,10.07
